Time;durP1;ratioP1;P1;durP2;ratioP2;P2;SDS_P1;SDS_P2;PMS_P1;PMS_P2;Temp;Humidity;BMP_temperature;BMP_pressure;BME280_temperature;BME280_humidity;BME280_pressure;Samples;Min_cycle;Max_cycle;Signal;HPM_P1;HPM_P2
2021/12/02 00:00:24;;;;;;;5.97;1.65;;;4.00;99.90;;;;;;5068377;28;20090;-44
2021/12/02 00:02:50;;;;;;;9.93;1.40;;;4.00;99.90;;;;;;5067799;28;20047;-43
2021/12/02 00:05:16;;;;;;;5.63;1.73;;;4.00;99.90;;;;;;5067090;28;20030;-44
2021/12/02 00:07:41;;;;;;;4.90;1.67;;;4.00;99.90;;;;;;5067562;28;20188;-44
2021/12/02 00:10:07;;;;;;;4.40;1.30;;;4.10;99.90;;;;;;5068129;28;20027;-44
2021/12/02 00:12:33;;;;;;;4.03;1.35;;;4.10;99.90;;;;;;5066845;28;20540;-42
2021/12/02 00:15:05;;;;;;;4.18;1.17;;;4.20;99.90;;;;;;5067985;28;20038;-43
2021/12/02 00:17:36;;;;;;;3.72;1.00;;;4.30;99.90;;;;;;5066669;28;20029;-44
2021/12/02 00:23:22;;;;;;;4.57;1.30;;;4.50;99.90;;;;;;5067309;28;20142;-43
2021/12/02 00:25:49;;;;;;;5.22;1.20;;;4.50;99.90;;;;;;5067277;28;20060;-43
2021/12/02 00:28:15;;;;;;;4.95;1.55;;;4.50;99.90;;;;;;5067823;28;20028;-43
2021/12/02 00:30:40;;;;;;;6.28;1.38;;;4.60;99.90;;;;;;5067282;28;20054;-43
2021/12/02 00:33:07;;;;;;;6.63;1.10;;;4.50;99.90;;;;;;5066686;28;20016;-43
2021/12/02 00:35:32;;;;;;;2.60;1.20;;;4.50;99.90;;;;;;5067427;28;20025;-43
2021/12/02 00:37:59;;;;;;;4.00;1.10;;;4.50;99.90;;;;;;5066932;28;20020;-42
2021/12/02 00:40:25;;;;;;;5.60;1.40;;;4.50;99.90;;;;;;5066115;28;20021;-43
2021/12/02 00:42:52;;;;;;;5.38;1.90;;;4.60;99.90;;;;;;5067402;28;20024;-43
2021/12/02 00:45:18;;;;;;;5.07;1.58;;;4.60;99.90;;;;;;5067255;28;20035;-43
2021/12/02 00:47:46;;;;;;;5.25;1.45;;;4.60;99.90;;;;;;5066106;28;20044;-43
2021/12/02 00:50:11;;;;;;;5.40;1.38;;;4.60;99.90;;;;;;5063834;28;20021;-43
2021/12/02 00:52:38;;;;;;;4.47;1.63;;;4.60;99.90;;;;;;5065767;28;20138;-44
2021/12/02 00:55:04;;;;;;;5.10;1.55;;;4.70;99.90;;;;;;5066986;28;20029;-43
2021/12/02 00:57:30;;;;;;;6.80;1.80;;;4.80;99.90;;;;;;5066904;28;20033;-45
2021/12/02 00:59:57;;;;;;;6.32;1.63;;;4.80;99.90;;;;;;5066305;28;20028;-44
2021/12/02 01:02:23;;;;;;;8.98;1.85;;;4.80;99.90;;;;;;5066733;28;20028;-42
2021/12/02 01:04:49;;;;;;;9.18;2.03;;;4.90;99.90;;;;;;5066650;28;20036;-43
2021/12/02 01:07:16;;;;;;;6.22;1.83;;;4.90;99.90;;;;;;5066181;28;20040;-44
2021/12/02 01:09:41;;;;;;;7.65;1.58;;;4.80;99.90;;;;;;5066519;28;20090;-43
2021/12/02 01:12:07;;;;;;;4.47;1.40;;;4.80;99.90;;;;;;5067418;28;20563;-43
2021/12/02 01:14:32;;;;;;;7.88;2.03;;;4.70;99.90;;;;;;5065740;28;20119;-46
2021/12/02 01:16:58;;;;;;;6.35;1.48;;;4.60;99.90;;;;;;5066628;28;20079;-43
2021/12/02 01:19:24;;;;;;;5.18;1.50;;;4.50;99.90;;;;;;5066505;28;20024;-43
2021/12/02 01:21:51;;;;;;;3.80;1.55;;;4.40;99.90;;;;;;5066406;28;20056;-43
2021/12/02 01:24:21;;;;;;;6.13;1.30;;;4.40;99.90;;;;;;5066804;28;20115;-43
2021/12/02 01:26:54;;;;;;;5.00;1.20;;;4.30;99.90;;;;;;5066442;28;20043;-44
2021/12/02 01:29:22;;;;;;;5.22;1.67;;;4.20;99.90;;;;;;5066101;28;20017;-44
2021/12/02 01:31:53;;;;;;;1.60;0.90;;;4.20;99.90;;;;;;5066645;28;20574;-43
2021/12/02 01:34:25;;;;;;;5.07;1.35;;;4.10;99.90;;;;;;5066994;28;20103;-43
2021/12/02 01:36:53;;;;;;;3.38;1.17;;;4.10;99.90;;;;;;5066362;28;20024;-43
2021/12/02 01:39:19;;;;;;;2.78;0.90;;;4.20;99.90;;;;;;5067172;28;20104;-43
2021/12/02 01:41:48;;;;;;;4.45;1.10;;;4.20;99.90;;;;;;5065420;28;20059;-44
2021/12/02 01:44:18;;;;;;;7.43;1.00;;;4.20;99.90;;;;;;5066983;28;20031;-44
2021/12/02 01:46:46;;;;;;;2.33;0.90;;;4.30;99.90;;;;;;5066173;28;20158;-44
2021/12/02 01:49:13;;;;;;;2.53;1.08;;;4.30;99.90;;;;;;5066330;28;20361;-44
2021/12/02 01:51:44;;;;;;;3.60;1.17;;;4.40;99.90;;;;;;5066383;28;20103;-44
2021/12/02 01:54:13;;;;;;;2.58;1.00;;;4.40;99.90;;;;;;5066682;28;20420;-44
2021/12/02 01:56:43;;;;;;;6.13;1.10;;;4.40;99.90;;;;;;5065277;28;20827;-42
2021/12/02 01:59:20;;;;;;;4.47;1.38;;;4.40;99.90;;;;;;5067208;28;20056;-43
2021/12/02 02:01:50;;;;;;;5.90;1.15;;;4.50;99.90;;;;;;5066095;28;20468;-43
2021/12/02 02:04:17;;;;;;;4.95;1.10;;;4.50;99.90;;;;;;5066015;28;20036;-43
2021/12/02 02:06:58;;;;;;;3.92;1.10;;;4.50;99.90;;;;;;5065472;28;20538;-43
2021/12/02 02:09:25;;;;;;;4.68;1.65;;;4.50;99.90;;;;;;5066663;28;20031;-43
2021/12/02 02:11:51;;;;;;;3.13;0.95;;;4.50;99.90;;;;;;5065375;28;20071;-43
2021/12/02 02:14:17;;;;;;;2.50;0.82;;;4.50;99.90;;;;;;5066863;28;20103;-44
2021/12/02 02:16:43;;;;;;;1.52;0.80;;;4.40;99.90;;;;;;5065895;28;20536;-44
2021/12/02 02:19:12;;;;;;;3.03;0.85;;;4.30;99.90;;;;;;5068834;28;20119;-43
2021/12/02 02:21:37;;;;;;;5.82;1.13;;;4.30;99.90;;;;;;5069591;28;20049;-44
2021/12/02 02:24:05;;;;;;;3.20;1.08;;;4.30;99.90;;;;;;5069084;28;20033;-43
2021/12/02 02:26:35;;;;;;;3.25;0.80;;;4.20;99.90;;;;;;5069486;28;20429;-42
2021/12/02 02:29:02;;;;;;;2.30;0.80;;;4.20;99.90;;;;;;5069925;28;20017;-43
2021/12/02 02:31:29;;;;;;;3.45;0.90;;;4.10;99.90;;;;;;5068587;28;20473;-44
2021/12/02 02:33:55;;;;;;;1.67;0.93;;;4.00;99.90;;;;;;5069830;28;20032;-43
2021/12/02 02:36:23;;;;;;;3.85;1.10;;;4.00;99.90;;;;;;5069591;28;20012;-43
2021/12/02 02:38:59;;;;;;;1.77;0.90;;;3.90;99.90;;;;;;5065714;28;20024;-43
2021/12/02 02:41:32;;;;;;;2.83;0.90;;;3.90;99.90;;;;;;5069728;28;20138;-43
2021/12/02 02:43:59;;;;;;;3.17;0.90;;;4.00;99.90;;;;;;5069051;28;20031;-42
2021/12/02 02:46:30;;;;;;;3.95;0.80;;;4.00;99.90;;;;;;5069181;28;20044;-43
2021/12/02 02:48:57;;;;;;;5.30;0.90;;;4.10;99.90;;;;;;5068928;28;20342;-44
2021/12/02 02:51:23;;;;;;;2.15;0.85;;;4.10;99.90;;;;;;5069237;28;20166;-44
2021/12/02 02:53:54;;;;;;;2.60;0.63;;;4.10;99.90;;;;;;5068167;28;20115;-43
2021/12/02 02:56:22;;;;;;;3.50;1.05;;;4.10;99.90;;;;;;5069399;28;20036;-42
2021/12/02 03:06:56;;;;;;;1.95;0.75;;;4.20;99.90;;;;;;5067716;28;20056;-43
2021/12/02 03:12:24;;;;;;;2.60;0.73;;;4.20;99.90;;;;;;5069374;28;20056;-42
2021/12/02 03:16:37;;;;;;;3.45;0.90;;;4.20;99.90;;;;;;5068333;28;20032;-42
2021/12/02 03:17:39;;;;;;;4.13;0.77;;;4.20;99.90;;;;;;5068515;28;20144;-43
2021/12/02 03:20:05;;;;;;;1.92;0.70;;;4.20;99.90;;;;;;5068343;28;20201;-42
2021/12/02 03:22:32;;;;;;;0.93;0.40;;;4.20;99.90;;;;;;5068141;28;20047;-44
2021/12/02 03:24:58;;;;;;;1.83;0.70;;;4.30;99.90;;;;;;5068632;28;20111;-43
2021/12/02 03:27:24;;;;;;;2.90;0.70;;;4.30;99.90;;;;;;5067580;28;20033;-43
2021/12/02 03:29:49;;;;;;;1.85;0.50;;;4.20;99.90;;;;;;5068164;28;20031;-44
2021/12/02 03:32:15;;;;;;;2.13;0.60;;;4.20;99.90;;;;;;5068857;28;20027;-44
2021/12/02 03:34:41;;;;;;;1.25;0.40;;;4.20;99.90;;;;;;5067091;28;20028;-43
2021/12/02 03:37:07;;;;;;;1.48;0.47;;;4.10;99.90;;;;;;5068407;28;20027;-43
2021/12/02 03:39:33;;;;;;;2.30;0.50;;;4.10;99.90;;;;;;5068498;28;20115;-43
2021/12/02 03:41:59;;;;;;;1.95;0.50;;;4.10;99.90;;;;;;5067325;28;20169;-43
2021/12/02 03:44:25;;;;;;;2.30;0.77;;;4.10;99.90;;;;;;5067873;28;20103;-43
2021/12/02 03:46:51;;;;;;;0.98;0.50;;;4.20;99.90;;;;;;5067795;28;20162;-43
2021/12/02 03:49:17;;;;;;;2.65;0.50;;;4.20;99.90;;;;;;5067368;28;20028;-44
2021/12/02 03:51:43;;;;;;;2.50;0.90;;;4.30;99.90;;;;;;5068057;28;20041;-43
2021/12/02 03:54:09;;;;;;;0.98;0.50;;;4.30;99.90;;;;;;5068456;28;20033;-44
2021/12/02 03:56:34;;;;;;;2.08;0.60;;;4.20;99.90;;;;;;5067061;28;20024;-42
2021/12/02 03:59:00;;;;;;;1.60;0.68;;;4.20;99.90;;;;;;5068280;28;20028;-42
2021/12/02 04:01:26;;;;;;;1.30;0.52;;;4.20;99.90;;;;;;5068015;28;20452;-44
2021/12/02 04:03:52;;;;;;;1.20;0.50;;;4.20;99.90;;;;;;5067047;28;20563;-43
2021/12/02 04:06:19;;;;;;;1.55;0.55;;;4.10;99.90;;;;;;5067710;28;20035;-43
2021/12/02 04:08:54;;;;;;;1.30;0.50;;;4.10;99.90;;;;;;5067829;28;20029;-44
2021/12/02 04:16:38;;;;;;;1.35;0.47;;;4.00;99.90;;;;;;5066449;28;20836;-43
2021/12/02 04:19:05;;;;;;;1.00;0.40;;;4.00;99.90;;;;;;5068136;28;20021;-43
2021/12/02 04:21:31;;;;;;;0.85;0.30;;;4.00;99.90;;;;;;5066847;28;20113;-44
2021/12/02 04:23:56;;;;;;;2.25;0.50;;;4.00;99.90;;;;;;5067170;28;20384;-43
2021/12/02 04:26:23;;;;;;;0.98;0.40;;;3.90;99.90;;;;;;5067331;28;20032;-43
2021/12/02 04:28:52;;;;;;;0.80;0.40;;;3.90;99.90;;;;;;5067422;28;20119;-43
2021/12/02 04:31:18;;;;;;;1.95;0.40;;;3.80;99.90;;;;;;5067363;28;20020;-44
2021/12/02 04:33:43;;;;;;;1.42;0.30;;;3.80;99.90;;;;;;5066867;28;20603;-44
2021/12/02 04:36:09;;;;;;;2.42;0.40;;;3.80;99.90;;;;;;5067182;28;20078;-43
2021/12/02 04:38:35;;;;;;;0.85;0.30;;;3.70;99.90;;;;;;5067146;28;20028;-42
2021/12/02 04:41:00;;;;;;;2.80;0.50;;;3.80;99.90;;;;;;5066543;28;20031;-42
2021/12/02 04:43:29;;;;;;;1.27;0.40;;;3.80;99.90;;;;;;5067470;28;20077;-43
2021/12/02 04:45:55;;;;;;;1.20;0.40;;;3.80;99.90;;;;;;5065857;28;20024;-43
2021/12/02 04:48:20;;;;;;;1.48;0.38;;;3.80;99.90;;;;;;5067370;28;20154;-43
2021/12/02 04:50:48;;;;;;;0.77;0.32;;;3.80;99.90;;;;;;5067113;28;20477;-44
2021/12/02 04:53:14;;;;;;;1.77;0.40;;;3.80;99.90;;;;;;5066311;28;20024;-44
2021/12/02 04:55:40;;;;;;;0.50;0.20;;;3.90;99.90;;;;;;5066675;28;20142;-43
2021/12/02 04:58:06;;;;;;;1.30;0.55;;;3.90;99.90;;;;;;5066543;28;20024;-43
2021/12/02 05:00:31;;;;;;;2.33;0.50;;;3.90;99.90;;;;;;5066647;28;20058;-43
2021/12/02 05:02:58;;;;;;;3.90;0.60;;;3.90;99.90;;;;;;5066712;28;20059;-44
2021/12/02 05:05:24;;;;;;;1.77;0.73;;;3.80;99.90;;;;;;5067052;28;20025;-43
2021/12/02 05:07:53;;;;;;;3.38;0.93;;;3.80;99.90;;;;;;5065993;28;20047;-43
2021/12/02 05:10:19;;;;;;;1.80;0.73;;;3.80;99.90;;;;;;5066694;28;20034;-43
2021/12/02 05:12:44;;;;;;;2.70;0.90;;;3.80;99.90;;;;;;5065635;28;20032;-43
2021/12/02 05:15:10;;;;;;;1.25;0.70;;;3.80;99.90;;;;;;5067317;28;20119;-43
2021/12/02 05:17:35;;;;;;;2.17;0.70;;;3.80;99.90;;;;;;5066390;28;20746;-43
2021/12/02 05:20:01;;;;;;;2.80;0.80;;;3.80;99.90;;;;;;5066422;28;20024;-44
2021/12/02 05:22:26;;;;;;;2.42;0.90;;;3.90;99.90;;;;;;5066345;28;20037;-43
2021/12/02 05:24:52;;;;;;;2.78;1.00;;;3.90;99.90;;;;;;5066834;28;20036;-44
2021/12/02 05:27:17;;;;;;;5.47;1.00;;;3.90;99.90;;;;;;5066330;28;20574;-45
2021/12/02 05:29:49;;;;;;;3.75;1.00;;;4.00;99.90;;;;;;5066532;28;20028;-48
2021/12/02 05:32:14;;;;;;;3.45;0.90;;;4.00;99.90;;;;;;5066715;28;20024;-44
2021/12/02 05:34:40;;;;;;;0.80;0.57;;;4.00;99.90;;;;;;5065819;28;20020;-42
2021/12/02 05:37:06;;;;;;;3.38;0.70;;;4.00;99.90;;;;;;5066884;28;20116;-42
2021/12/02 05:39:31;;;;;;;2.53;1.00;;;4.00;99.90;;;;;;5066375;28;20035;-43
2021/12/02 05:41:57;;;;;;;3.05;0.90;;;3.90;99.90;;;;;;5066287;28;20477;-42
2021/12/02 05:44:23;;;;;;;1.05;0.45;;;3.80;99.90;;;;;;5066694;28;20028;-43
2021/12/02 05:46:50;;;;;;;1.20;0.50;;;3.80;99.90;;;;;;5046159;28;20040;-43
2021/12/02 05:49:16;;;;;;;2.60;0.73;;;3.70;99.90;;;;;;5060739;28;20029;-43
2021/12/02 05:51:42;;;;;;;2.00;0.50;;;3.60;99.90;;;;;;5066198;28;20029;-43
2021/12/02 05:54:09;;;;;;;2.28;0.43;;;3.50;99.90;;;;;;5069487;28;20021;-43
2021/12/02 05:56:34;;;;;;;1.38;0.73;;;3.40;99.90;;;;;;5069907;28;20028;-43
2021/12/02 05:59:00;;;;;;;1.55;0.60;;;3.30;99.90;;;;;;5069508;28;20047;-43
2021/12/02 06:01:26;;;;;;;3.22;0.60;;;3.20;99.90;;;;;;5070194;28;20020;-43
2021/12/02 06:03:51;;;;;;;1.52;0.40;;;3.20;99.90;;;;;;5069456;28;20379;-43
2021/12/02 06:06:17;;;;;;;1.55;0.55;;;3.20;99.90;;;;;;5070267;28;20147;-44
2021/12/02 06:08:43;;;;;;;1.20;0.35;;;3.20;99.90;;;;;;5069465;28;20028;-43
2021/12/02 06:11:09;;;;;;;1.85;0.60;;;3.20;99.90;;;;;;5069108;28;20044;-44
2021/12/02 06:13:37;;;;;;;1.10;0.50;;;3.20;99.90;;;;;;5070302;28;20102;-43
2021/12/02 06:16:02;;;;;;;1.70;0.43;;;3.20;99.90;;;;;;5066128;28;20031;-42
2021/12/02 06:18:28;;;;;;;0.65;0.30;;;3.20;99.90;;;;;;5069876;28;20028;-43
2021/12/02 06:20:54;;;;;;;0.52;0.40;;;3.20;99.90;;;;;;5069544;28;20036;-43
2021/12/02 06:23:21;;;;;;;1.90;0.55;;;3.20;99.90;;;;;;5069363;28;20021;-44
2021/12/02 06:25:47;;;;;;;0.90;0.38;;;3.20;99.90;;;;;;5069301;28;20112;-44
2021/12/02 06:28:17;;;;;;;0.63;0.40;;;3.30;99.90;;;;;;5070473;28;20121;-44
2021/12/02 06:30:43;;;;;;;1.10;0.55;;;3.30;99.90;;;;;;5068516;28;20563;-43
2021/12/02 06:33:09;;;;;;;1.67;0.60;;;3.30;99.90;;;;;;5070288;28;20028;-43
2021/12/02 06:35:38;;;;;;;1.40;0.60;;;3.30;99.90;;;;;;5069288;28;20082;-44
2021/12/02 06:38:03;;;;;;;1.15;0.70;;;3.40;99.90;;;;;;5069059;28;20630;-44
2021/12/02 06:40:29;;;;;;;0.80;0.32;;;3.40;99.90;;;;;;5069679;28;20499;-43
2021/12/02 06:42:55;;;;;;;2.13;0.70;;;3.40;99.90;;;;;;5069612;28;20491;-43
2021/12/02 06:45:21;;;;;;;1.20;0.80;;;3.40;99.90;;;;;;5068574;28;20036;-44
2021/12/02 06:47:47;;;;;;;2.90;0.80;;;3.40;99.90;;;;;;5069258;28;20032;-43
2021/12/02 06:50:18;;;;;;;2.15;0.90;;;3.40;99.90;;;;;;5066963;28;20020;-44
2021/12/02 06:52:45;;;;;;;3.58;0.85;;;3.40;99.90;;;;;;5054607;28;20020;-45
2021/12/02 06:55:11;;;;;;;2.13;0.95;;;3.40;99.90;;;;;;5067897;28;20020;-43
2021/12/02 06:57:37;;;;;;;0.95;0.70;;;3.40;99.90;;;;;;5067082;28;20395;-43
2021/12/02 07:00:09;;;;;;;1.38;0.80;;;3.40;99.90;;;;;;5067412;28;20020;-42
2021/12/02 07:02:37;;;;;;;1.08;0.75;;;3.40;99.90;;;;;;5064596;28;20104;-43
2021/12/02 07:05:08;;;;;;;2.85;1.10;;;3.40;99.90;;;;;;5068261;28;20034;-43
2021/12/02 07:07:37;;;;;;;1.85;0.70;;;3.30;99.90;;;;;;5066731;28;20047;-43
2021/12/02 07:10:32;;;;;;;2.35;1.20;;;3.30;99.90;;;;;;5067238;28;20059;-44
2021/12/02 07:12:58;;;;;;;1.80;0.82;;;3.20;99.90;;;;;;5062387;28;20109;-42
2021/12/02 07:15:30;;;;;;;1.88;1.27;;;3.10;99.90;;;;;;5067436;28;20033;-43
2021/12/02 07:18:00;;;;;;;1.48;1.20;;;3.00;99.90;;;;;;5067747;28;20031;-43
2021/12/02 07:20:34;;;;;;;2.78;0.90;;;2.90;99.90;;;;;;5067103;28;20043;-43
2021/12/02 07:22:59;;;;;;;3.10;0.90;;;2.90;99.90;;;;;;5067120;28;20111;-43
2021/12/02 07:25:27;;;;;;;1.27;1.00;;;2.90;99.90;;;;;;5068414;28;20154;-43
2021/12/02 07:27:52;;;;;;;1.40;0.90;;;2.80;99.90;;;;;;5066010;28;20174;-44
2021/12/02 07:30:18;;;;;;;2.08;0.80;;;2.90;99.90;;;;;;5068510;28;20144;-44
2021/12/02 07:32:47;;;;;;;1.85;1.25;;;2.90;99.90;;;;;;5066577;28;20037;-44
2021/12/02 07:35:15;;;;;;;3.25;1.17;;;2.90;99.90;;;;;;5067173;28;20021;-44
2021/12/02 07:37:46;;;;;;;1.95;0.98;;;2.90;99.90;;;;;;5066975;28;20077;-44
2021/12/02 07:40:16;;;;;;;2.15;1.20;;;2.90;99.90;;;;;;5068255;28;20154;-43
2021/12/02 07:42:45;;;;;;;1.10;0.98;;;2.80;99.90;;;;;;5066386;28;20028;-44
2021/12/02 07:45:10;;;;;;;1.40;0.90;;;2.80;99.90;;;;;;5053146;28;20021;-43
2021/12/02 07:47:41;;;;;;;2.55;1.10;;;2.80;99.90;;;;;;5055952;28;20472;-43
2021/12/02 07:50:13;;;;;;;1.50;1.00;;;2.80;99.90;;;;;;5068171;28;20139;-44
2021/12/02 07:52:55;;;;;;;2.63;1.40;;;2.70;99.90;;;;;;5067308;28;20111;-44
2021/12/02 07:55:23;;;;;;;3.53;1.27;;;2.80;99.90;;;;;;5067155;28;20488;-43
2021/12/02 07:57:49;;;;;;;2.45;1.27;;;2.80;99.90;;;;;;5067683;28;20025;-43
2021/12/02 08:00:20;;;;;;;1.27;1.13;;;2.90;99.90;;;;;;5067663;28;20035;-43
2021/12/02 08:02:47;;;;;;;2.17;1.27;;;3.00;99.90;;;;;;5066384;28;20017;-43
2021/12/02 08:05:14;;;;;;;4.25;1.50;;;3.10;99.90;;;;;;5068850;28;20028;-44
2021/12/02 08:07:43;;;;;;;3.38;1.40;;;3.10;99.90;;;;;;5068755;28;20028;-43
2021/12/02 08:10:09;;;;;;;2.83;1.77;;;3.20;99.90;;;;;;5067187;28;20097;-43
2021/12/02 08:12:37;;;;;;;2.90;1.42;;;3.30;99.90;;;;;;5067256;28;20074;-43
2021/12/02 08:15:07;;;;;;;2.47;1.40;;;3.30;99.90;;;;;;5067221;28;20065;-43
2021/12/02 08:17:33;;;;;;;3.72;1.23;;;3.40;99.90;;;;;;5066440;28;20024;-44
2021/12/02 08:19:59;;;;;;;2.20;1.40;;;3.40;99.90;;;;;;5066916;28;20027;-44
2021/12/02 08:22:24;;;;;;;3.50;1.33;;;3.50;99.90;;;;;;5067511;28;20044;-44
2021/12/02 08:24:50;;;;;;;5.40;1.75;;;3.60;99.90;;;;;;5066247;28;20506;-42
2021/12/02 08:27:16;;;;;;;4.32;1.70;;;3.70;99.90;;;;;;5067582;28;20127;-43
2021/12/02 08:29:42;;;;;;;3.50;1.73;;;3.70;99.90;;;;;;5065976;28;20020;-43
2021/12/02 08:32:08;;;;;;;2.25;1.60;;;3.80;99.90;;;;;;5067277;28;20033;-44
2021/12/02 08:34:34;;;;;;;3.47;1.80;;;3.80;99.90;;;;;;5067140;28;20025;-44
2021/12/02 08:37:00;;;;;;;5.72;2.10;;;3.80;99.90;;;;;;5066545;28;20043;-43
2021/12/02 08:39:28;;;;;;;4.40;2.33;;;3.80;99.90;;;;;;5066795;28;20020;-44
2021/12/02 08:41:55;;;;;;;3.58;2.03;;;3.80;99.90;;;;;;5067432;28;20028;-44
2021/12/02 08:44:22;;;;;;;4.32;2.05;;;3.90;99.90;;;;;;5066202;28;20036;-43
2021/12/02 08:46:50;;;;;;;3.50;2.00;;;3.90;99.90;;;;;;5066888;28;20041;-43
2021/12/02 08:49:16;;;;;;;4.82;2.00;;;3.90;99.90;;;;;;5066996;28;20023;-42
2021/12/02 08:51:42;;;;;;;4.43;1.88;;;3.90;99.90;;;;;;5066145;28;20060;-45
2021/12/02 08:54:08;;;;;;;3.05;2.00;;;4.00;99.90;;;;;;5067282;28;20077;-43
2021/12/02 08:56:33;;;;;;;4.93;2.38;;;4.00;99.90;;;;;;5066812;28;20025;-43
2021/12/02 08:59:08;;;;;;;5.45;2.08;;;4.10;99.90;;;;;;5065991;28;20028;-43
2021/12/02 09:01:34;;;;;;;4.78;2.15;;;4.10;99.90;;;;;;5063319;28;20071;-43
2021/12/02 09:04:04;;;;;;;3.03;2.00;;;4.10;99.90;;;;;;5066649;28;20024;-43
2021/12/02 09:06:30;;;;;;;3.92;2.00;;;4.20;99.90;;;;;;5065331;28;20381;-43
2021/12/02 09:08:58;;;;;;;5.25;2.00;;;4.20;99.90;;;;;;5066908;28;20021;-43
2021/12/02 09:11:25;;;;;;;4.43;1.77;;;4.20;99.90;;;;;;5066285;28;20028;-44
2021/12/02 09:13:56;;;;;;;2.33;1.50;;;4.20;99.90;;;;;;5065928;28;20032;-44
2021/12/02 09:16:22;;;;;;;2.05;1.40;;;4.20;99.90;;;;;;5066801;28;20024;-44
2021/12/02 09:18:47;;;;;;;2.85;1.45;;;4.20;99.90;;;;;;5066347;28;20383;-43
2021/12/02 09:21:13;;;;;;;4.25;1.63;;;4.20;99.90;;;;;;5065689;28;20041;-43
2021/12/02 09:23:38;;;;;;;3.75;1.48;;;4.10;99.90;;;;;;5066199;28;20542;-43
2021/12/02 09:26:04;;;;;;;2.13;1.50;;;4.10;99.90;;;;;;5065887;28;20044;-44
2021/12/02 09:28:29;;;;;;;2.90;1.33;;;4.10;99.90;;;;;;5070757;28;20035;-44
2021/12/02 09:30:55;;;;;;;3.80;1.90;;;4.10;99.90;;;;;;5070296;28;20289;-43
2021/12/02 09:33:20;;;;;;;2.00;1.27;;;4.10;99.90;;;;;;5069898;28;20028;-42
2021/12/02 09:35:46;;;;;;;2.95;1.40;;;4.10;99.90;;;;;;5070296;28;20073;-43
2021/12/02 09:38:11;;;;;;;3.42;1.20;;;4.10;99.90;;;;;;5068351;28;20024;-44
2021/12/02 09:40:40;;;;;;;3.25;1.85;;;4.10;99.90;;;;;;5069094;28;20073;-44
2021/12/02 09:43:06;;;;;;;3.55;1.63;;;4.20;99.90;;;;;;5070801;28;20033;-43
2021/12/02 09:45:31;;;;;;;2.53;1.40;;;4.30;99.90;;;;;;5069922;28;20028;-43
2021/12/02 09:47:57;;;;;;;3.95;1.33;;;4.50;99.90;;;;;;5069275;28;20490;-43
2021/12/02 09:50:33;;;;;;;1.95;1.17;;;4.60;99.90;;;;;;5069663;28;20162;-43
2021/12/02 09:53:13;;;;;;;1.98;1.08;;;4.70;99.90;;;;;;5069976;28;20029;-44
2021/12/02 09:58:08;;;;;;;2.17;1.40;;;4.80;99.90;;;;;;5069562;28;20620;-43
2021/12/02 10:00:43;;;;;;;2.33;1.08;;;4.80;99.90;;;;;;5070030;28;20052;-43
2021/12/02 10:06:09;;;;;;;1.55;1.02;;;4.80;99.90;;;;;;5069990;28;20086;-43
2021/12/02 10:08:44;;;;;;;2.92;1.02;;;4.70;99.90;;;;;;5068590;28;20031;-43
2021/12/02 10:11:14;;;;;;;1.65;1.00;;;4.70;99.90;;;;;;5069993;28;20033;-43
2021/12/02 10:13:46;;;;;;;2.65;1.10;;;4.60;99.90;;;;;;5068947;28;20593;-43
2021/12/02 10:21:41;;;;;;;2.42;1.00;;;4.40;99.90;;;;;;5069632;28;20048;-43
2021/12/02 10:24:11;;;;;;;2.78;1.33;;;4.30;99.90;;;;;;5068932;28;20025;-44
2021/12/02 10:26:49;;;;;;;3.08;1.27;;;4.30;99.90;;;;;;5068959;28;20082;-43
2021/12/02 10:29:18;;;;;;;2.97;1.23;;;4.20;99.90;;;;;;5068545;28;20074;-44
2021/12/02 10:31:48;;;;;;;4.15;1.20;;;4.20;99.90;;;;;;5069212;28;20024;-44
2021/12/02 10:34:19;;;;;;;1.98;0.93;;;4.20;99.90;;;;;;5069681;28;20106;-43
2021/12/02 10:36:47;;;;;;;3.78;1.45;;;4.20;99.90;;;;;;5068534;28;20024;-43
2021/12/02 10:39:17;;;;;;;4.68;1.30;;;4.20;99.90;;;;;;5068190;28;20028;-43
2021/12/02 10:41:45;;;;;;;2.08;1.10;;;4.20;99.90;;;;;;5068590;28;20147;-44
2021/12/02 10:44:18;;;;;;;1.40;1.00;;;4.30;99.90;;;;;;5068707;28;20058;-43
2021/12/02 10:46:56;;;;;;;3.15;1.08;;;4.30;99.90;;;;;;5068887;28;20488;-44
2021/12/02 10:49:23;;;;;;;3.58;1.00;;;4.40;99.90;;;;;;5068812;28;20025;-47
2021/12/02 10:51:52;;;;;;;4.40;1.17;;;4.40;99.90;;;;;;5067931;28;20115;-44
2021/12/02 10:54:21;;;;;;;1.58;0.88;;;4.40;99.90;;;;;;5069586;28;20025;-43
2021/12/02 10:56:56;;;;;;;2.03;0.70;;;4.40;99.90;;;;;;5068750;28;20036;-44
2021/12/02 10:59:44;;;;;;;2.78;1.00;;;4.40;99.90;;;;;;5068117;28;20356;-44
2021/12/02 11:02:20;;;;;;;2.30;1.23;;;4.40;99.90;;;;;;5068933;28;20035;-43
2021/12/02 11:05:08;;;;;;;3.30;1.02;;;4.50;99.90;;;;;;5067948;28;20016;-44
2021/12/02 11:07:35;;;;;;;4.65;1.05;;;4.60;99.90;;;;;;5068499;28;20496;-44
2021/12/02 11:10:04;;;;;;;1.80;0.90;;;4.60;99.90;;;;;;5068525;28;20476;-43
2021/12/02 11:12:39;;;;;;;1.02;0.93;;;4.70;99.90;;;;;;5066281;28;20739;-44
2021/12/02 11:15:08;;;;;;;3.00;1.00;;;4.90;99.90;;;;;;5068328;28;20039;-44
2021/12/02 11:17:39;;;;;;;1.75;0.70;;;4.90;99.90;;;;;;5068478;28;20024;-43
2021/12/02 11:20:09;;;;;;;1.25;0.88;;;5.10;99.90;;;;;;5068082;28;20031;-44
2021/12/02 11:22:35;;;;;;;1.27;0.80;;;5.30;99.90;;;;;;5067910;28;20024;-44
2021/12/02 11:25:03;;;;;;;1.98;0.68;;;5.30;99.90;;;;;;5068604;28;20028;-43
2021/12/02 11:27:35;;;;;;;1.25;0.73;;;5.40;99.90;;;;;;5067431;28;20029;-43
2021/12/02 11:30:09;;;;;;;1.20;0.75;;;5.40;99.90;;;;;;5068218;28;20383;-44
2021/12/02 11:32:49;;;;;;;1.45;0.68;;;5.50;99.90;;;;;;5067421;28;20380;-43
2021/12/02 11:35:17;;;;;;;2.35;0.80;;;5.60;99.90;;;;;;5068654;28;20028;-44
2021/12/02 11:37:46;;;;;;;1.38;0.60;;;5.60;99.90;;;;;;5067687;28;20399;-42
2021/12/02 11:40:41;;;;;;;3.15;0.80;;;5.60;99.90;;;;;;5066950;28;20052;-43
2021/12/02 11:43:09;;;;;;;1.98;0.90;;;5.70;99.90;;;;;;5067487;28;20110;-43
2021/12/02 11:45:42;;;;;;;0.95;0.70;;;5.70;99.90;;;;;;5064471;28;20021;-43
2021/12/02 11:48:08;;;;;;;2.08;0.80;;;5.60;99.90;;;;;;5067221;28;20141;-43
2021/12/02 11:50:33;;;;;;;3.90;1.10;;;5.60;99.90;;;;;;5067928;28;20707;-43
2021/12/02 11:52:59;;;;;;;1.10;0.70;;;5.50;99.90;;;;;;5067561;28;20473;-44
2021/12/02 11:55:32;;;;;;;1.85;0.88;;;5.50;99.90;;;;;;5066889;28;20020;-43
2021/12/02 11:57:58;;;;;;;0.55;0.55;;;5.40;99.90;;;;;;5057625;28;20115;-43
2021/12/02 12:00:26;;;;;;;1.52;0.70;;;5.30;99.90;;;;;;5067353;28;20104;-44
2021/12/02 12:02:54;;;;;;;1.83;0.60;;;5.30;99.90;;;;;;5066483;28;20032;-43
2021/12/02 12:05:34;;;;;;;1.90;1.02;;;5.20;99.90;;;;;;5067917;28;20029;-43
2021/12/02 12:08:00;;;;;;;2.53;0.90;;;5.20;99.90;;;;;;5064653;28;20481;-42
2021/12/02 12:10:30;;;;;;;1.83;0.75;;;5.10;99.90;;;;;;5067516;28;20020;-43
2021/12/02 12:13:23;;;;;;;1.05;0.75;;;5.10;99.90;;;;;;5063594;28;20017;-44
2021/12/02 12:15:52;;;;;;;0.93;0.63;;;5.10;99.90;;;;;;5064900;28;20785;-43
2021/12/02 12:18:39;;;;;;;4.40;0.68;;;5.00;99.90;;;;;;5067978;28;20020;-43
2021/12/02 12:21:08;;;;;;;1.45;0.50;;;4.90;99.90;;;;;;5067379;28;20761;-44
2021/12/02 12:23:41;;;;;;;0.75;0.60;;;4.80;99.90;;;;;;5066556;28;20028;-44
2021/12/02 12:26:35;;;;;;;0.73;0.50;;;4.80;99.90;;;;;;5067084;28;20023;-43
2021/12/02 12:29:07;;;;;;;3.42;0.60;;;4.70;99.90;;;;;;5056240;28;20028;-43
2021/12/02 12:37:30;;;;;;;3.53;0.80;;;4.80;99.90;;;;;;5066665;28;20036;-43
2021/12/02 12:40:04;;;;;;;1.67;0.70;;;4.80;99.90;;;;;;5066918;28;20074;-44
2021/12/02 12:42:30;;;;;;;1.85;0.60;;;4.80;99.90;;;;;;5066789;28;20028;-43
2021/12/02 12:45:00;;;;;;;1.40;0.50;;;4.80;99.90;;;;;;5066264;28;20036;-43
2021/12/02 12:47:43;;;;;;;0.68;0.65;;;4.80;99.90;;;;;;5067150;28;20037;-44
2021/12/02 12:50:38;;;;;;;0.50;0.45;;;4.80;99.90;;;;;;5066212;28;20374;-42
2021/12/02 12:53:15;;;;;;;1.30;0.60;;;4.70;99.90;;;;;;5066164;28;20476;-43
2021/12/02 12:55:55;;;;;;;1.08;0.65;;;4.70;99.90;;;;;;5066605;28;20040;-42
2021/12/02 12:58:33;;;;;;;0.70;0.60;;;4.70;99.90;;;;;;5065978;28;20024;-44
2021/12/02 13:01:18;;;;;;;0.80;0.40;;;4.70;99.90;;;;;;5066434;28;20028;-42
2021/12/02 13:04:19;;;;;;;0.60;0.60;;;4.80;99.90;;;;;;5066052;28;20357;-43
2021/12/02 13:07:07;;;;;;;0.77;0.70;;;4.80;99.90;;;;;;5046232;28;20040;-43
2021/12/02 13:09:48;;;;;;;0.90;0.80;;;4.80;99.90;;;;;;5065659;28;20032;-43
2021/12/02 13:12:18;;;;;;;1.85;0.75;;;4.80;99.90;;;;;;5066803;28;20025;-43
2021/12/02 13:14:49;;;;;;;2.00;0.80;;;4.70;99.90;;;;;;5065917;28;20029;-43
2021/12/02 13:17:39;;;;;;;2.22;0.90;;;4.80;99.90;;;;;;5066768;28;20024;-43
2021/12/02 13:20:19;;;;;;;1.80;1.05;;;4.80;99.90;;;;;;5064843;28;20480;-43
2021/12/02 13:22:47;;;;;;;2.63;1.27;;;4.80;99.90;;;;;;5066849;28;20503;-43
2021/12/02 13:25:26;;;;;;;1.75;0.85;;;4.80;99.90;;;;;;5065641;28;20395;-43
2021/12/02 13:27:52;;;;;;;3.10;1.02;;;4.80;99.90;;;;;;5066221;28;20119;-43
2021/12/02 13:30:18;;;;;;;2.60;0.90;;;4.80;99.90;;;;;;5066392;28;20120;-43
2021/12/02 13:32:50;;;;;;;1.20;0.80;;;4.80;99.90;;;;;;5065602;28;20028;-44
2021/12/02 13:35:25;;;;;;;2.67;1.00;;;4.80;99.90;;;;;;5066013;28;20032;-44
2021/12/02 13:38:04;;;;;;;2.20;1.00;;;4.90;99.90;;;;;;5066456;28;20028;-44
2021/12/02 13:40:34;;;;;;;1.45;0.90;;;4.90;99.90;;;;;;5065865;28;20077;-44
2021/12/02 13:43:02;;;;;;;6.47;3.83;;;4.90;99.90;;;;;;5066597;28;20388;-43